sensor_id;sensor_type;location;lat;lon;timestamp;temperature;humidity
22645;DHT22;11489;50.834;6.752;2023-06-22T00:00:49;22.50;56.60
22645;DHT22;11489;50.834;6.752;2023-06-22T00:03:15;22.50;56.60
22645;DHT22;11489;50.834;6.752;2023-06-22T00:05:41;22.50;57.10
22645;DHT22;11489;50.834;6.752;2023-06-22T00:08:06;22.50;56.70
22645;DHT22;11489;50.834;6.752;2023-06-22T00:10:32;22.40;56.60
22645;DHT22;11489;50.834;6.752;2023-06-22T00:12:58;22.40;56.70
22645;DHT22;11489;50.834;6.752;2023-06-22T00:15:23;22.40;56.70
22645;DHT22;11489;50.834;6.752;2023-06-22T00:17:50;22.50;56.80
22645;DHT22;11489;50.834;6.752;2023-06-22T00:20:16;22.40;56.80
22645;DHT22;11489;50.834;6.752;2023-06-22T00:22:44;22.40;56.90
22645;DHT22;11489;50.834;6.752;2023-06-22T00:25:10;22.40;56.90
22645;DHT22;11489;50.834;6.752;2023-06-22T00:27:36;22.40;56.90
22645;DHT22;11489;50.834;6.752;2023-06-22T00:30:02;22.40;56.90
22645;DHT22;11489;50.834;6.752;2023-06-22T00:32:28;22.40;57.00
22645;DHT22;11489;50.834;6.752;2023-06-22T00:34:54;22.40;57.00
22645;DHT22;11489;50.834;6.752;2023-06-22T00:37:20;22.40;57.10
22645;DHT22;11489;50.834;6.752;2023-06-22T00:39:48;22.40;57.10
22645;DHT22;11489;50.834;6.752;2023-06-22T00:42:14;22.30;57.10
22645;DHT22;11489;50.834;6.752;2023-06-22T00:44:39;22.40;57.20
22645;DHT22;11489;50.834;6.752;2023-06-22T00:47:06;22.30;57.10
22645;DHT22;11489;50.834;6.752;2023-06-22T00:49:32;22.30;57.20
22645;DHT22;11489;50.834;6.752;2023-06-22T00:51:58;22.30;57.20
22645;DHT22;11489;50.834;6.752;2023-06-22T00:54:24;22.30;57.30
22645;DHT22;11489;50.834;6.752;2023-06-22T00:56:53;22.30;57.90
22645;DHT22;11489;50.834;6.752;2023-06-22T00:59:22;22.30;57.50
22645;DHT22;11489;50.834;6.752;2023-06-22T01:01:48;22.20;57.30
22645;DHT22;11489;50.834;6.752;2023-06-22T01:04:14;22.30;57.80
22645;DHT22;11489;50.834;6.752;2023-06-22T01:09:33;22.20;57.60
22645;DHT22;11489;50.834;6.752;2023-06-22T01:12:03;22.20;57.50
22645;DHT22;11489;50.834;6.752;2023-06-22T01:14:59;22.20;57.50
22645;DHT22;11489;50.834;6.752;2023-06-22T01:17:27;22.20;57.70
22645;DHT22;11489;50.834;6.752;2023-06-22T01:19:55;22.20;57.60
22645;DHT22;11489;50.834;6.752;2023-06-22T01:22:28;22.20;57.60
22645;DHT22;11489;50.834;6.752;2023-06-22T01:25:11;22.10;57.70
22645;DHT22;11489;50.834;6.752;2023-06-22T01:27:53;22.10;57.90
22645;DHT22;11489;50.834;6.752;2023-06-22T01:30:22;22.10;57.90
22645;DHT22;11489;50.834;6.752;2023-06-22T01:32:50;22.10;57.80
22645;DHT22;11489;50.834;6.752;2023-06-22T01:35:18;22.10;57.80
22645;DHT22;11489;50.834;6.752;2023-06-22T01:37:50;22.10;57.90
22645;DHT22;11489;50.834;6.752;2023-06-22T01:40:16;22.10;58.10
22645;DHT22;11489;50.834;6.752;2023-06-22T01:42:43;22.10;58.00
22645;DHT22;11489;50.834;6.752;2023-06-22T01:45:10;22.10;58.10
22645;DHT22;11489;50.834;6.752;2023-06-22T01:47:36;22.00;58.00
22645;DHT22;11489;50.834;6.752;2023-06-22T01:50:03;22.00;58.00
22645;DHT22;11489;50.834;6.752;2023-06-22T01:52:29;22.00;58.00
22645;DHT22;11489;50.834;6.752;2023-06-22T01:54:55;22.10;58.10
22645;DHT22;11489;50.834;6.752;2023-06-22T01:57:23;22.10;58.10
22645;DHT22;11489;50.834;6.752;2023-06-22T02:00:04;22.00;58.10
22645;DHT22;11489;50.834;6.752;2023-06-22T02:02:39;22.10;58.30
22645;DHT22;11489;50.834;6.752;2023-06-22T02:05:09;22.10;58.20
22645;DHT22;11489;50.834;6.752;2023-06-22T02:07:46;22.10;58.10
22645;DHT22;11489;50.834;6.752;2023-06-22T02:10:14;22.10;58.20
22645;DHT22;11489;50.834;6.752;2023-06-22T02:12:42;22.00;58.10
22645;DHT22;11489;50.834;6.752;2023-06-22T02:15:09;22.10;58.20
22645;DHT22;11489;50.834;6.752;2023-06-22T02:17:35;22.00;58.10
22645;DHT22;11489;50.834;6.752;2023-06-22T02:20:03;22.00;58.10
22645;DHT22;11489;50.834;6.752;2023-06-22T02:22:34;22.00;58.20
22645;DHT22;11489;50.834;6.752;2023-06-22T02:25:00;22.00;58.20
22645;DHT22;11489;50.834;6.752;2023-06-22T02:27:26;21.90;58.20
22645;DHT22;11489;50.834;6.752;2023-06-22T02:29:51;22.00;58.30
22645;DHT22;11489;50.834;6.752;2023-06-22T02:32:17;22.00;58.30
22645;DHT22;11489;50.834;6.752;2023-06-22T02:34:43;21.90;58.30
22645;DHT22;11489;50.834;6.752;2023-06-22T02:37:13;21.90;58.40
22645;DHT22;11489;50.834;6.752;2023-06-22T02:39:42;21.90;58.50
22645;DHT22;11489;50.834;6.752;2023-06-22T02:42:08;21.90;58.60
22645;DHT22;11489;50.834;6.752;2023-06-22T02:44:36;21.90;58.70
22645;DHT22;11489;50.834;6.752;2023-06-22T02:47:02;21.80;58.80
22645;DHT22;11489;50.834;6.752;2023-06-22T02:49:28;21.80;58.90
22645;DHT22;11489;50.834;6.752;2023-06-22T02:51:53;21.80;59.10
22645;DHT22;11489;50.834;6.752;2023-06-22T02:54:21;21.70;59.10
22645;DHT22;11489;50.834;6.752;2023-06-22T02:56:46;21.70;59.30
22645;DHT22;11489;50.834;6.752;2023-06-22T02:59:13;21.70;59.40
22645;DHT22;11489;50.834;6.752;2023-06-22T03:01:39;21.60;59.50
22645;DHT22;11489;50.834;6.752;2023-06-22T03:04:10;21.60;59.70
22645;DHT22;11489;50.834;6.752;2023-06-22T03:06:36;21.50;59.70
22645;DHT22;11489;50.834;6.752;2023-06-22T03:09:04;21.50;59.90
22645;DHT22;11489;50.834;6.752;2023-06-22T03:11:34;21.40;60.00
22645;DHT22;11489;50.834;6.752;2023-06-22T03:14:00;21.50;60.20
22645;DHT22;11489;50.834;6.752;2023-06-22T03:16:26;21.40;59.90
22645;DHT22;11489;50.834;6.752;2023-06-22T03:18:52;21.40;59.90
22645;DHT22;11489;50.834;6.752;2023-06-22T03:21:23;21.40;59.90
22645;DHT22;11489;50.834;6.752;2023-06-22T03:23:49;21.40;60.20
22645;DHT22;11489;50.834;6.752;2023-06-22T03:26:18;21.30;60.30
22645;DHT22;11489;50.834;6.752;2023-06-22T03:28:44;21.30;60.70
22645;DHT22;11489;50.834;6.752;2023-06-22T03:31:10;21.30;60.70
22645;DHT22;11489;50.834;6.752;2023-06-22T03:33:35;21.30;60.80
22645;DHT22;11489;50.834;6.752;2023-06-22T03:36:01;21.20;60.90
22645;DHT22;11489;50.834;6.752;2023-06-22T03:38:27;21.20;61.10
22645;DHT22;11489;50.834;6.752;2023-06-22T03:40:52;21.20;61.00
22645;DHT22;11489;50.834;6.752;2023-06-22T03:43:18;21.10;61.00
22645;DHT22;11489;50.834;6.752;2023-06-22T03:45:44;21.10;61.20
22645;DHT22;11489;50.834;6.752;2023-06-22T03:48:11;21.00;61.30
22645;DHT22;11489;50.834;6.752;2023-06-22T03:50:37;21.00;61.60
22645;DHT22;11489;50.834;6.752;2023-06-22T03:53:03;21.00;61.90
22645;DHT22;11489;50.834;6.752;2023-06-22T03:55:28;21.00;62.10
22645;DHT22;11489;50.834;6.752;2023-06-22T03:57:54;21.00;62.40
22645;DHT22;11489;50.834;6.752;2023-06-22T04:00:23;20.90;62.50
22645;DHT22;11489;50.834;6.752;2023-06-22T04:02:49;20.90;62.90
22645;DHT22;11489;50.834;6.752;2023-06-22T04:05:15;20.90;63.10
22645;DHT22;11489;50.834;6.752;2023-06-22T04:07:42;20.90;63.30
22645;DHT22;11489;50.834;6.752;2023-06-22T04:10:08;21.00;63.40
22645;DHT22;11489;50.834;6.752;2023-06-22T04:12:34;20.90;63.50
22645;DHT22;11489;50.834;6.752;2023-06-22T04:15:00;21.00;63.70
22645;DHT22;11489;50.834;6.752;2023-06-22T04:17:25;21.00;63.80
22645;DHT22;11489;50.834;6.752;2023-06-22T04:19:51;21.00;64.00
22645;DHT22;11489;50.834;6.752;2023-06-22T04:22:17;21.00;64.10
22645;DHT22;11489;50.834;6.752;2023-06-22T04:24:44;21.00;64.30
22645;DHT22;11489;50.834;6.752;2023-06-22T04:27:09;21.00;64.30
22645;DHT22;11489;50.834;6.752;2023-06-22T04:29:35;21.00;64.40
22645;DHT22;11489;50.834;6.752;2023-06-22T04:32:01;21.00;64.60
22645;DHT22;11489;50.834;6.752;2023-06-22T04:34:31;20.90;64.70
22645;DHT22;11489;50.834;6.752;2023-06-22T04:36:57;20.90;64.90
22645;DHT22;11489;50.834;6.752;2023-06-22T04:39:23;20.80;65.20
22645;DHT22;11489;50.834;6.752;2023-06-22T04:41:50;20.80;65.50
22645;DHT22;11489;50.834;6.752;2023-06-22T04:44:19;20.80;66.30
22645;DHT22;11489;50.834;6.752;2023-06-22T04:46:58;20.70;65.90
22645;DHT22;11489;50.834;6.752;2023-06-22T04:49:29;20.70;66.40
22645;DHT22;11489;50.834;6.752;2023-06-22T04:52:04;20.70;66.00
22645;DHT22;11489;50.834;6.752;2023-06-22T04:54:30;20.70;66.50
22645;DHT22;11489;50.834;6.752;2023-06-22T04:56:59;20.70;66.90
22645;DHT22;11489;50.834;6.752;2023-06-22T04:59:27;20.70;66.20
22645;DHT22;11489;50.834;6.752;2023-06-22T05:02:00;20.60;66.30
22645;DHT22;11489;50.834;6.752;2023-06-22T05:04:27;20.70;66.60
22645;DHT22;11489;50.834;6.752;2023-06-22T05:06:54;20.70;66.50
22645;DHT22;11489;50.834;6.752;2023-06-22T05:09:20;20.70;66.70
22645;DHT22;11489;50.834;6.752;2023-06-22T05:11:46;20.70;66.70
22645;DHT22;11489;50.834;6.752;2023-06-22T05:14:15;20.80;66.90
22645;DHT22;11489;50.834;6.752;2023-06-22T05:16:43;20.90;67.20
22645;DHT22;11489;50.834;6.752;2023-06-22T05:19:09;20.90;67.50
22645;DHT22;11489;50.834;6.752;2023-06-22T05:21:38;21.00;67.40
22645;DHT22;11489;50.834;6.752;2023-06-22T05:24:04;21.10;67.50
22645;DHT22;11489;50.834;6.752;2023-06-22T05:26:31;21.10;67.40
22645;DHT22;11489;50.834;6.752;2023-06-22T05:28:57;21.20;67.50
22645;DHT22;11489;50.834;6.752;2023-06-22T05:31:26;21.30;67.50
22645;DHT22;11489;50.834;6.752;2023-06-22T05:33:56;21.40;67.80
22645;DHT22;11489;50.834;6.752;2023-06-22T05:36:22;21.50;68.50
22645;DHT22;11489;50.834;6.752;2023-06-22T05:38:59;21.50;67.60
22645;DHT22;11489;50.834;6.752;2023-06-22T05:41:24;21.60;67.60
22645;DHT22;11489;50.834;6.752;2023-06-22T05:43:50;21.70;67.50
22645;DHT22;11489;50.834;6.752;2023-06-22T05:46:16;21.80;67.60
22645;DHT22;11489;50.834;6.752;2023-06-22T05:48:42;21.90;67.70
22645;DHT22;11489;50.834;6.752;2023-06-22T05:51:08;22.10;67.60
22645;DHT22;11489;50.834;6.752;2023-06-22T05:53:33;22.20;67.20
22645;DHT22;11489;50.834;6.752;2023-06-22T05:55:59;22.40;66.90
22645;DHT22;11489;50.834;6.752;2023-06-22T05:58:25;22.50;66.80
22645;DHT22;11489;50.834;6.752;2023-06-22T06:00:50;22.70;66.40
22645;DHT22;11489;50.834;6.752;2023-06-22T06:03:16;22.80;66.20
22645;DHT22;11489;50.834;6.752;2023-06-22T06:05:43;23.00;66.10
22645;DHT22;11489;50.834;6.752;2023-06-22T06:08:09;23.20;66.00
22645;DHT22;11489;50.834;6.752;2023-06-22T06:10:36;23.30;65.70
22645;DHT22;11489;50.834;6.752;2023-06-22T06:13:02;23.40;65.60
22645;DHT22;11489;50.834;6.752;2023-06-22T06:15:33;23.50;65.50
22645;DHT22;11489;50.834;6.752;2023-06-22T06:17:59;23.70;65.30
22645;DHT22;11489;50.834;6.752;2023-06-22T06:20:26;23.80;65.10
22645;DHT22;11489;50.834;6.752;2023-06-22T06:22:53;23.90;64.80
22645;DHT22;11489;50.834;6.752;2023-06-22T06:25:19;24.00;64.80
22645;DHT22;11489;50.834;6.752;2023-06-22T06:27:48;24.20;64.60
22645;DHT22;11489;50.834;6.752;2023-06-22T06:30:15;24.40;64.50
22645;DHT22;11489;50.834;6.752;2023-06-22T06:32:42;24.60;64.20
22645;DHT22;11489;50.834;6.752;2023-06-22T06:35:09;24.70;64.00
22645;DHT22;11489;50.834;6.752;2023-06-22T06:37:40;24.90;63.80
22645;DHT22;11489;50.834;6.752;2023-06-22T06:40:10;25.10;63.30
22645;DHT22;11489;50.834;6.752;2023-06-22T06:42:47;25.20;62.90
22645;DHT22;11489;50.834;6.752;2023-06-22T06:45:16;25.30;62.40
22645;DHT22;11489;50.834;6.752;2023-06-22T06:47:42;25.40;62.40
22645;DHT22;11489;50.834;6.752;2023-06-22T06:50:08;25.50;62.10
22645;DHT22;11489;50.834;6.752;2023-06-22T06:52:34;25.50;61.80
22645;DHT22;11489;50.834;6.752;2023-06-22T06:55:00;25.50;61.70
22645;DHT22;11489;50.834;6.752;2023-06-22T06:57:26;25.60;61.80
22645;DHT22;11489;50.834;6.752;2023-06-22T06:59:56;25.60;61.70
22645;DHT22;11489;50.834;6.752;2023-06-22T07:02:22;25.70;61.60
22645;DHT22;11489;50.834;6.752;2023-06-22T07:04:48;25.70;61.40
22645;DHT22;11489;50.834;6.752;2023-06-22T07:07:14;25.70;61.30
22645;DHT22;11489;50.834;6.752;2023-06-22T07:09:40;25.80;61.40
22645;DHT22;11489;50.834;6.752;2023-06-22T07:12:06;25.90;61.50
22645;DHT22;11489;50.834;6.752;2023-06-22T07:14:32;26.00;61.30
22645;DHT22;11489;50.834;6.752;2023-06-22T07:16:58;26.10;61.20
22645;DHT22;11489;50.834;6.752;2023-06-22T07:19:28;26.10;60.80
22645;DHT22;11489;50.834;6.752;2023-06-22T07:21:54;26.20;60.20
22645;DHT22;11489;50.834;6.752;2023-06-22T07:24:20;26.10;60.10
22645;DHT22;11489;50.834;6.752;2023-06-22T07:26:49;26.10;60.10
22645;DHT22;11489;50.834;6.752;2023-06-22T07:29:16;26.10;60.10
22645;DHT22;11489;50.834;6.752;2023-06-22T07:31:42;26.10;60.30
22645;DHT22;11489;50.834;6.752;2023-06-22T07:34:08;26.10;60.40
22645;DHT22;11489;50.834;6.752;2023-06-22T07:36:34;26.20;60.40
22645;DHT22;11489;50.834;6.752;2023-06-22T07:39:02;26.20;60.30
22645;DHT22;11489;50.834;6.752;2023-06-22T07:41:28;26.20;61.40
22645;DHT22;11489;50.834;6.752;2023-06-22T07:43:54;26.30;61.00
22645;DHT22;11489;50.834;6.752;2023-06-22T07:46:19;26.40;61.20
22645;DHT22;11489;50.834;6.752;2023-06-22T07:48:45;26.60;61.30
22645;DHT22;11489;50.834;6.752;2023-06-22T07:51:11;26.70;61.10
22645;DHT22;11489;50.834;6.752;2023-06-22T07:53:41;26.90;61.00
22645;DHT22;11489;50.834;6.752;2023-06-22T07:56:07;27.00;60.70
22645;DHT22;11489;50.834;6.752;2023-06-22T07:58:33;27.20;60.80
22645;DHT22;11489;50.834;6.752;2023-06-22T08:00:59;27.30;60.80
22645;DHT22;11489;50.834;6.752;2023-06-22T08:03:24;27.60;60.20
22645;DHT22;11489;50.834;6.752;2023-06-22T08:05:50;27.70;59.50
22645;DHT22;11489;50.834;6.752;2023-06-22T08:08:16;27.70;59.20
22645;DHT22;11489;50.834;6.752;2023-06-22T08:10:42;27.80;59.20
22645;DHT22;11489;50.834;6.752;2023-06-22T08:13:08;27.90;59.30
22645;DHT22;11489;50.834;6.752;2023-06-22T08:15:34;27.90;58.90
22645;DHT22;11489;50.834;6.752;2023-06-22T08:17:59;28.00;58.80
22645;DHT22;11489;50.834;6.752;2023-06-22T08:20:26;28.10;58.60
22645;DHT22;11489;50.834;6.752;2023-06-22T08:22:53;28.10;58.50
22645;DHT22;11489;50.834;6.752;2023-06-22T08:25:19;28.20;58.30
22645;DHT22;11489;50.834;6.752;2023-06-22T08:27:47;28.30;58.20
22645;DHT22;11489;50.834;6.752;2023-06-22T08:30:14;28.30;58.10
22645;DHT22;11489;50.834;6.752;2023-06-22T08:32:40;28.40;58.00
22645;DHT22;11489;50.834;6.752;2023-06-22T08:35:06;28.40;57.80
22645;DHT22;11489;50.834;6.752;2023-06-22T08:37:34;28.50;57.70
22645;DHT22;11489;50.834;6.752;2023-06-22T08:40:03;28.60;57.80
22645;DHT22;11489;50.834;6.752;2023-06-22T08:42:33;28.60;57.70
22645;DHT22;11489;50.834;6.752;2023-06-22T08:44:59;28.70;57.60
22645;DHT22;11489;50.834;6.752;2023-06-22T08:47:26;28.80;57.40
22645;DHT22;11489;50.834;6.752;2023-06-22T08:49:52;29.00;57.40
22645;DHT22;11489;50.834;6.752;2023-06-22T08:52:19;29.10;56.90
22645;DHT22;11489;50.834;6.752;2023-06-22T08:54:45;29.10;56.40
22645;DHT22;11489;50.834;6.752;2023-06-22T08:57:11;29.00;56.10
22645;DHT22;11489;50.834;6.752;2023-06-22T08:59:37;29.00;56.00
22645;DHT22;11489;50.834;6.752;2023-06-22T09:02:02;29.00;56.00
22645;DHT22;11489;50.834;6.752;2023-06-22T09:04:28;29.00;56.20
22645;DHT22;11489;50.834;6.752;2023-06-22T09:06:54;29.00;56.20
22645;DHT22;11489;50.834;6.752;2023-06-22T09:09:21;29.00;56.00
22645;DHT22;11489;50.834;6.752;2023-06-22T09:11:47;29.00;56.10
22645;DHT22;11489;50.834;6.752;2023-06-22T09:14:13;29.00;56.10
22645;DHT22;11489;50.834;6.752;2023-06-22T09:16:38;29.00;56.00
22645;DHT22;11489;50.834;6.752;2023-06-22T09:19:04;29.00;55.80
22645;DHT22;11489;50.834;6.752;2023-06-22T09:21:33;29.00;55.60
22645;DHT22;11489;50.834;6.752;2023-06-22T09:23:58;28.90;55.50
22645;DHT22;11489;50.834;6.752;2023-06-22T09:26:24;28.80;55.70
22645;DHT22;11489;50.834;6.752;2023-06-22T09:28:50;28.80;56.00
22645;DHT22;11489;50.834;6.752;2023-06-22T09:31:15;28.80;56.10
22645;DHT22;11489;50.834;6.752;2023-06-22T09:33:42;28.80;56.10
22645;DHT22;11489;50.834;6.752;2023-06-22T09:36:08;28.90;56.00
22645;DHT22;11489;50.834;6.752;2023-06-22T09:38:38;28.90;56.00
22645;DHT22;11489;50.834;6.752;2023-06-22T09:41:04;28.90;55.90
22645;DHT22;11489;50.834;6.752;2023-06-22T09:43:31;29.00;56.10
22645;DHT22;11489;50.834;6.752;2023-06-22T09:45:57;29.10;55.70
22645;DHT22;11489;50.834;6.752;2023-06-22T09:48:23;29.10;55.90
22645;DHT22;11489;50.834;6.752;2023-06-22T09:50:49;29.20;55.90
22645;DHT22;11489;50.834;6.752;2023-06-22T09:53:15;29.30;55.70
22645;DHT22;11489;50.834;6.752;2023-06-22T09:55:41;29.30;55.30
22645;DHT22;11489;50.834;6.752;2023-06-22T09:58:06;29.30;54.90
22645;DHT22;11489;50.834;6.752;2023-06-22T10:00:32;29.20;54.50
22645;DHT22;11489;50.834;6.752;2023-06-22T10:02:57;29.10;54.40
22645;DHT22;11489;50.834;6.752;2023-06-22T10:05:23;29.00;54.50
22645;DHT22;11489;50.834;6.752;2023-06-22T10:07:50;28.90;54.50
22645;DHT22;11489;50.834;6.752;2023-06-22T10:10:16;28.80;55.00
22645;DHT22;11489;50.834;6.752;2023-06-22T10:12:48;28.70;55.10
22645;DHT22;11489;50.834;6.752;2023-06-22T10:15:14;28.60;55.20
22645;DHT22;11489;50.834;6.752;2023-06-22T10:17:40;28.40;55.50
22645;DHT22;11489;50.834;6.752;2023-06-22T10:20:07;28.20;56.40
22645;DHT22;11489;50.834;6.752;2023-06-22T10:22:42;28.00;56.50
22645;DHT22;11489;50.834;6.752;2023-06-22T10:25:10;27.70;57.90
22645;DHT22;11489;50.834;6.752;2023-06-22T10:27:36;27.50;57.60
22645;DHT22;11489;50.834;6.752;2023-06-22T10:30:02;27.20;57.70
22645;DHT22;11489;50.834;6.752;2023-06-22T10:32:27;26.80;58.20
22645;DHT22;11489;50.834;6.752;2023-06-22T10:34:56;26.40;59.10
22645;DHT22;11489;50.834;6.752;2023-06-22T10:37:22;26.00;59.80
22645;DHT22;11489;50.834;6.752;2023-06-22T10:39:48;25.70;60.80
22645;DHT22;11489;50.834;6.752;2023-06-22T10:42:14;25.30;61.50
22645;DHT22;11489;50.834;6.752;2023-06-22T10:44:40;25.00;62.30
22645;DHT22;11489;50.834;6.752;2023-06-22T10:47:07;24.60;63.00
22645;DHT22;11489;50.834;6.752;2023-06-22T10:49:32;24.30;63.90
22645;DHT22;11489;50.834;6.752;2023-06-22T10:51:58;24.00;64.80
22645;DHT22;11489;50.834;6.752;2023-06-22T10:54:23;23.80;65.90
22645;DHT22;11489;50.834;6.752;2023-06-22T10:56:49;23.60;66.90
22645;DHT22;11489;50.834;6.752;2023-06-22T10:59:16;23.30;68.00
22645;DHT22;11489;50.834;6.752;2023-06-22T11:01:41;23.20;68.90
22645;DHT22;11489;50.834;6.752;2023-06-22T11:04:07;23.00;69.50
22645;DHT22;11489;50.834;6.752;2023-06-22T11:06:33;22.90;70.00
22645;DHT22;11489;50.834;6.752;2023-06-22T11:08:59;22.80;70.70
22645;DHT22;11489;50.834;6.752;2023-06-22T11:11:25;22.70;71.80
22645;DHT22;11489;50.834;6.752;2023-06-22T11:13:52;22.60;73.00
22645;DHT22;11489;50.834;6.752;2023-06-22T11:16:18;22.60;74.20
22645;DHT22;11489;50.834;6.752;2023-06-22T11:18:44;22.50;76.00
22645;DHT22;11489;50.834;6.752;2023-06-22T11:21:09;22.50;76.20
22645;DHT22;11489;50.834;6.752;2023-06-22T11:23:35;22.50;77.00
22645;DHT22;11489;50.834;6.752;2023-06-22T11:26:01;22.40;78.50
22645;DHT22;11489;50.834;6.752;2023-06-22T11:28:27;22.40;78.80
22645;DHT22;11489;50.834;6.752;2023-06-22T11:30:52;22.40;79.90
22645;DHT22;11489;50.834;6.752;2023-06-22T11:33:18;22.50;80.70
22645;DHT22;11489;50.834;6.752;2023-06-22T11:35:44;22.50;81.40
22645;DHT22;11489;50.834;6.752;2023-06-22T11:38:10;22.60;82.00
22645;DHT22;11489;50.834;6.752;2023-06-22T11:40:35;22.60;82.10
22645;DHT22;11489;50.834;6.752;2023-06-22T11:43:01;22.60;82.00
22645;DHT22;11489;50.834;6.752;2023-06-22T11:45:27;22.60;82.30
22645;DHT22;11489;50.834;6.752;2023-06-22T11:47:52;22.60;83.00
22645;DHT22;11489;50.834;6.752;2023-06-22T11:50:18;22.60;84.00
22645;DHT22;11489;50.834;6.752;2023-06-22T11:52:44;22.60;85.10
22645;DHT22;11489;50.834;6.752;2023-06-22T11:55:09;22.70;86.20
22645;DHT22;11489;50.834;6.752;2023-06-22T11:57:39;22.70;86.80
22645;DHT22;11489;50.834;6.752;2023-06-22T12:00:17;22.80;87.50
22645;DHT22;11489;50.834;6.752;2023-06-22T12:02:44;23.00;87.70
22645;DHT22;11489;50.834;6.752;2023-06-22T12:05:10;23.10;87.90
22645;DHT22;11489;50.834;6.752;2023-06-22T12:07:36;23.20;88.30
22645;DHT22;11489;50.834;6.752;2023-06-22T12:10:03;23.40;89.00
22645;DHT22;11489;50.834;6.752;2023-06-22T12:12:29;23.50;88.90
22645;DHT22;11489;50.834;6.752;2023-06-22T12:14:55;23.60;88.80
22645;DHT22;11489;50.834;6.752;2023-06-22T12:17:20;23.70;88.70
22645;DHT22;11489;50.834;6.752;2023-06-22T12:19:46;23.80;88.70
22645;DHT22;11489;50.834;6.752;2023-06-22T12:22:12;23.90;88.70
22645;DHT22;11489;50.834;6.752;2023-06-22T12:24:37;24.00;88.50
22645;DHT22;11489;50.834;6.752;2023-06-22T12:27:03;24.00;88.10
22645;DHT22;11489;50.834;6.752;2023-06-22T12:29:29;24.10;88.10
22645;DHT22;11489;50.834;6.752;2023-06-22T12:31:55;24.10;87.70
22645;DHT22;11489;50.834;6.752;2023-06-22T12:34:21;24.10;88.10
22645;DHT22;11489;50.834;6.752;2023-06-22T12:36:46;24.20;88.50
22645;DHT22;11489;50.834;6.752;2023-06-22T12:39:15;24.30;88.90
22645;DHT22;11489;50.834;6.752;2023-06-22T12:41:41;24.40;88.40
22645;DHT22;11489;50.834;6.752;2023-06-22T12:44:06;24.40;88.50
22645;DHT22;11489;50.834;6.752;2023-06-22T12:46:32;24.50;88.90
22645;DHT22;11489;50.834;6.752;2023-06-22T12:49:03;24.70;89.10
22645;DHT22;11489;50.834;6.752;2023-06-22T12:51:29;24.70;89.40
22645;DHT22;11489;50.834;6.752;2023-06-22T12:53:55;25.00;89.40
22645;DHT22;11489;50.834;6.752;2023-06-22T12:56:22;25.10;89.70
22645;DHT22;11489;50.834;6.752;2023-06-22T12:58:47;25.20;88.70
22645;DHT22;11489;50.834;6.752;2023-06-22T13:01:13;25.30;88.00
22645;DHT22;11489;50.834;6.752;2023-06-22T13:03:40;25.50;86.40
22645;DHT22;11489;50.834;6.752;2023-06-22T13:06:05;25.50;86.30
22645;DHT22;11489;50.834;6.752;2023-06-22T13:08:34;25.60;85.50
22645;DHT22;11489;50.834;6.752;2023-06-22T13:11:00;25.70;84.90
22645;DHT22;11489;50.834;6.752;2023-06-22T13:13:25;25.70;83.60
22645;DHT22;11489;50.834;6.752;2023-06-22T13:15:53;25.70;84.00
22645;DHT22;11489;50.834;6.752;2023-06-22T13:18:19;25.70;84.00
22645;DHT22;11489;50.834;6.752;2023-06-22T13:20:45;25.70;83.70
22645;DHT22;11489;50.834;6.752;2023-06-22T13:23:11;25.70;84.10
22645;DHT22;11489;50.834;6.752;2023-06-22T13:25:37;25.70;83.40
22645;DHT22;11489;50.834;6.752;2023-06-22T13:28:03;25.80;83.70
22645;DHT22;11489;50.834;6.752;2023-06-22T13:30:29;25.80;83.60
22645;DHT22;11489;50.834;6.752;2023-06-22T13:32:55;25.90;84.00
22645;DHT22;11489;50.834;6.752;2023-06-22T13:35:21;25.90;83.80
22645;DHT22;11489;50.834;6.752;2023-06-22T13:37:46;26.00;84.00
22645;DHT22;11489;50.834;6.752;2023-06-22T13:40:12;26.20;84.10
22645;DHT22;11489;50.834;6.752;2023-06-22T13:42:38;26.30;83.90
22645;DHT22;11489;50.834;6.752;2023-06-22T13:45:06;26.40;82.60
22645;DHT22;11489;50.834;6.752;2023-06-22T13:47:32;26.50;81.80
22645;DHT22;11489;50.834;6.752;2023-06-22T13:49:58;26.50;81.60
22645;DHT22;11489;50.834;6.752;2023-06-22T13:52:24;26.50;81.20
22645;DHT22;11489;50.834;6.752;2023-06-22T13:54:50;26.50;81.10
22645;DHT22;11489;50.834;6.752;2023-06-22T13:57:16;26.60;81.30
22645;DHT22;11489;50.834;6.752;2023-06-22T13:59:41;26.70;80.90
22645;DHT22;11489;50.834;6.752;2023-06-22T14:02:07;26.70;80.60
22645;DHT22;11489;50.834;6.752;2023-06-22T14:04:36;26.70;80.00
22645;DHT22;11489;50.834;6.752;2023-06-22T14:07:01;26.80;80.60
22645;DHT22;11489;50.834;6.752;2023-06-22T14:09:27;26.80;79.90
22645;DHT22;11489;50.834;6.752;2023-06-22T14:11:54;26.70;79.70
22645;DHT22;11489;50.834;6.752;2023-06-22T14:14:20;26.80;79.70
22645;DHT22;11489;50.834;6.752;2023-06-22T14:16:46;26.80;79.60
22645;DHT22;11489;50.834;6.752;2023-06-22T14:19:13;26.80;79.50
22645;DHT22;11489;50.834;6.752;2023-06-22T14:21:38;26.90;80.20
22645;DHT22;11489;50.834;6.752;2023-06-22T14:24:04;26.90;79.70
22645;DHT22;11489;50.834;6.752;2023-06-22T14:26:30;26.80;78.70
22645;DHT22;11489;50.834;6.752;2023-06-22T14:28:56;26.80;78.40
22645;DHT22;11489;50.834;6.752;2023-06-22T14:31:22;26.80;77.40
22645;DHT22;11489;50.834;6.752;2023-06-22T14:33:49;26.70;76.70
22645;DHT22;11489;50.834;6.752;2023-06-22T14:36:16;26.60;76.80
22645;DHT22;11489;50.834;6.752;2023-06-22T14:38:43;26.50;76.50
22645;DHT22;11489;50.834;6.752;2023-06-22T14:41:08;26.50;76.70
22645;DHT22;11489;50.834;6.752;2023-06-22T14:43:34;26.40;77.20
22645;DHT22;11489;50.834;6.752;2023-06-22T14:46:00;26.40;77.80
22645;DHT22;11489;50.834;6.752;2023-06-22T14:48:26;26.40;78.00
22645;DHT22;11489;50.834;6.752;2023-06-22T14:50:51;26.40;78.20
22645;DHT22;11489;50.834;6.752;2023-06-22T14:53:19;26.50;76.60
22645;DHT22;11489;50.834;6.752;2023-06-22T14:55:45;26.50;75.80
22645;DHT22;11489;50.834;6.752;2023-06-22T14:58:11;26.40;76.20
22645;DHT22;11489;50.834;6.752;2023-06-22T15:00:37;26.40;76.90
22645;DHT22;11489;50.834;6.752;2023-06-22T15:03:04;26.40;76.80
22645;DHT22;11489;50.834;6.752;2023-06-22T15:05:31;26.30;76.60
22645;DHT22;11489;50.834;6.752;2023-06-22T15:07:56;26.30;76.90
22645;DHT22;11489;50.834;6.752;2023-06-22T15:10:22;26.20;76.90
22645;DHT22;11489;50.834;6.752;2023-06-22T15:12:48;26.10;76.30
22645;DHT22;11489;50.834;6.752;2023-06-22T15:15:14;25.90;76.10
22645;DHT22;11489;50.834;6.752;2023-06-22T15:17:39;25.70;75.90
22645;DHT22;11489;50.834;6.752;2023-06-22T15:20:05;25.50;75.60
22645;DHT22;11489;50.834;6.752;2023-06-22T15:22:31;25.10;75.50
22645;DHT22;11489;50.834;6.752;2023-06-22T15:24:57;24.60;75.90
22645;DHT22;11489;50.834;6.752;2023-06-22T15:27:24;24.20;77.20
22645;DHT22;11489;50.834;6.752;2023-06-22T15:29:49;23.80;78.40